Andice, Texas
Current Conditions -  °F | °C
As of 12:15 AM on Monday 22 Dec 2014 (Local Time) from KGTU Reporting Station
Overcast Overcast  
Wind Chill: 57°   Ceiling: 1500
Heat Index: 57°   Visibility: 10mi
Dew Point: 52°   Wind: 13mph
Humidity: 82%   Direction: 190°S
Pressure: 29.8"   Gusts: 18mph
Location:  30.6575°N, 97.7523°W
Report Text: KGTU 220615Z 19011G16KT 10SM OVC015 14/11 A2980 RMK AO1
Loading
Personal Weather Stations






























Interactive Weather Map New forecast layout! Learn more

10-Day Weather Forecast

Advertisements
Track Severe Weather on mobile